CLRO2: Verdigris River, Claremore, OK

Data processed at Thu May 23 2019 23:50


All information presented herein is the property of the government of the United States of America and may be revised or deleted at any time without prior notice.
Dissemination of this information without the expressed written consent of the Public Affairs Office, Tulsa District U.S. Army Corps of Engineers is strictly prohibited.
These data are gathered electronically and, as presented, have not undergone any form of quality control. These data are not guaranteed to be valid or correct.
Go to home page.
Go to station list.
Go to home page.

Upstream stations:

Downstream station:
Previous Day
Next Day
Current Day
    
SHEF ID:       CLRO2     Verdigris River near Claremore,
STATION TYPE:  
Regulating: Stage =    35.00, Flow =    54965

               PRECIP     STAGE  STAGE(2)  RIV-FLOW  BAT-LOAD
                   in        ft        ft       cfs      volt
              Ccp-Rev   Ccp-Rev   Ccp-Rev   Ccp-Rev   Ccp-Rev
(US/Central)
05/23 00:00      0.00     26.57     26.92     38343     12.81
05/23 01:00      0.00     27.11     27.42     39386     12.81
05/23 02:00      0.00     27.61     27.99     40354     12.81
05/23 03:00      0.00     28.36     28.68     41812     12.73
05/23 04:00      0.00     28.98     29.38     43022     12.73
05/23 05:00      0.00     29.74     30.10     44510     12.73
05/23 06:00      0.00     30.50     30.93     46004     12.73
05/23 07:00      0.00     31.26     31.67     47504     12.73
05/23 08:00      0.00     31.84     32.28     48653     12.97
05/23 09:00      0.00     32.54     32.87     50043     13.44
05/23 10:00      0.00     32.97     33.42     50900     13.68
05/23 11:00      0.00     33.41     33.80     51778     13.76
05/23 12:00      0.00     33.73     34.15     52417     13.84
05/23 13:00      0.00     34.25     34.65     53459     13.84
05/23 14:00      0.00     35.02     35.40     55006     13.44
05/23 15:00      0.00     35.82     36.22     56618     13.84
05/23 16:00      0.00     36.60     37.00     58196     13.29
05/23 17:00      0.00     37.35     37.81     59717     13.29
05/23 18:00      0.00     37.88     38.45     60795     13.44
05/23 19:00      0.00     38.53     38.98     62121     13.21
05/23 20:00      0.00     38.86     39.46     62795     13.21
05/23 21:00      0.00     39.29     39.78     63674     12.97
05/23 22:00      0.00     39.55     40.09     64207     12.89
05/23 23:00      0.00     39.85     40.36     64827     12.89